| time (UTC) | temp F | wind direction | speed MPH | gust MPH | rain 1hr in | rain 24hr in | rain mn in | humidity % | barometer mb |
| 20260504100142 | 56 | 248 | 0.0 | 2.0 | 0.00 | 0.00 | 0.00 | 75 | 1005.1 |
| 20260504090104 | 58 | 224 | 5.0 | 5.0 | 0.00 | 0.00 | 0.00 | 72 | 1005.7 |
| 20260504081535 | 59 | 260 | 2.0 | 5.0 | 0.00 | 0.00 | 0.00 | 71 | 1005.6 |
| 20260504081031 | 59 | 224 | 4.0 | 5.0 | 0.00 | 0.00 | 0.00 | 71 | 1005.3 |
| 20260504080527 | 59 | 206 | 3.0 | 6.0 | 0.00 | 0.00 | 0.00 | 71 | 1005.7 |
| 20260504050340 | 58 | 290 | 0.0 | 1.0 | 0.00 | 0.00 | 0.00 | 69 | 1007.1 |
| 20260504045837 | 58 | 34 | 0.0 | 0.0 | 0.00 | 0.00 | 0.00 | 69 | 1007.1 |
| 20260504045332 | 58 | 34 | 0.0 | 0.0 | 0.00 | 0.00 | 0.00 | 69 | 1007.1 |
| 20260504044829 | 58 | 217 | 0.0 | 2.0 | 0.00 | 0.00 | 0.00 | 69 | 1007.3 |
| 20260504044326 | 59 | 304 | 0.0 | 2.0 | 0.00 | 0.00 | 0.00 | 69 | 1007.4 |
| 20260504043823 | 59 | 226 | 0.0 | 2.0 | 0.00 | 0.00 | 0.00 | 68 | 1007.5 |
| 20260504043320 | 59 | 155 | 0.0 | 1.0 | 0.00 | 0.00 | 0.00 | 68 | 1007.4 |
| 20260504042818 | 59 | 126 | 0.0 | 0.0 | 0.00 | 0.00 | 0.00 | 68 | 1007.5 |
| 20260504042314 | 59 | 326 | 1.0 | 2.0 | 0.00 | 0.00 | 0.00 | 67 | 1007.5 |
| 20260504041811 | 59 | 284 | 0.0 | 1.0 | 0.00 | 0.00 | 0.00 | 67 | 1007.4 |
| 20260504041307 | 59 | 336 | 0.0 | 2.0 | 0.00 | 0.00 | 0.00 | 68 | 1007.6 |
| 20260504040803 | 59 | 50 | 0.0 | 1.0 | 0.00 | 0.00 | 0.00 | 69 | 1007.7 |
| 20260504040301 | 59 | 315 | 0.0 | 0.0 | 0.00 | 0.00 | 0.00 | 69 | 1007.5 |
| 20260504035756 | 58 | 217 | 0.0 | 1.0 | 0.00 | 0.00 | 0.00 | 70 | 1007.8 |
| 20260504035253 | 59 | 309 | 0.0 | 0.0 | 0.00 | 0.00 | 0.00 | 70 | 1007.9 |
| 20260504034751 | 59 | 309 | 0.0 | 0.0 | 0.00 | 0.00 | 0.00 | 69 | 1007.8 |
| 20260504034248 | 59 | 309 | 0.0 | 0.0 | 0.00 | 0.00 | 0.00 | 67 | 1008.0 |
| 20260504033745 | 60 | 309 | 0.0 | 0.0 | 0.00 | 0.00 | 0.00 | 66 | 1008.0 |
| 20260504033243 | 60 | 66 | 0.0 | 0.0 | 0.00 | 0.00 | 0.00 | 65 | 1008.1 |
| 20260504032740 | 60 | 50 | 0.0 | 1.0 | 0.00 | 0.00 | 0.00 | 64 | 1007.9 |
| 20260504032237 | 61 | 13 | 0.0 | 1.0 | 0.00 | 0.00 | 0.00 | 63 | 1007.9 |
| 20260504031733 | 61 | 180 | 0.0 | 0.0 | 0.00 | 0.00 | 0.00 | 61 | 1008.0 |
| 20260504031231 | 62 | 37 | 0.0 | 0.0 | 0.00 | 0.00 | 0.00 | 60 | 1008.1 |
| 20260504030727 | 62 | 233 | 1.0 | 1.0 | 0.00 | 0.00 | 0.00 | 61 | 1008.0 |
| 20260504030224 | 62 | 41 | 2.0 | 3.0 | 0.00 | 0.00 | 0.00 | 60 | 1008.3 |
| 20260504025721 | 62 | 329 | 0.0 | 2.0 | 0.00 | 0.00 | 0.00 | 60 | 1007.9 |
| 20260504025217 | 63 | 141 | 0.0 | 3.0 | 0.00 | 0.00 | 0.00 | 59 | 1007.9 |
| 20260504024715 | 63 | 129 | 0.0 | 2.0 | 0.00 | 0.00 | 0.00 | 59 | 1007.9 |
| 20260504024211 | 63 | 186 | 0.0 | 1.0 | 0.00 | 0.00 | 0.00 | 58 | 1007.8 |
| 20260504023708 | 64 | 309 | 0.0 | 1.0 | 0.00 | 0.00 | 0.00 | 59 | 1008.0 |
| 20260504023203 | 64 | 213 | 1.0 | 3.0 | 0.00 | 0.00 | 0.00 | 57 | 1007.6 |
| 20260504022700 | 64 | 166 | 4.0 | 5.0 | 0.00 | 0.00 | 0.00 | 57 | 1007.6 |
| 20260504022156 | 64 | 99 | 0.0 | 3.0 | 0.00 | 0.00 | 0.00 | 57 | 1007.4 |
| 20260504021654 | 64 | 252 | 2.0 | 2.0 | 0.00 | 0.00 | 0.00 | 57 | 1007.6 |
| 20260504021150 | 64 | 299 | 1.0 | 2.0 | 0.00 | 0.00 | 0.00 | 56 | 1007.5 |
| 20260504020648 | 65 | 182 | 2.0 | 3.0 | 0.00 | 0.00 | 0.00 | 56 | 1007.5 |
| 20260504020143 | 64 | 217 | 2.0 | 3.0 | 0.00 | 0.00 | 0.00 | 57 | 1007.6 |
| 20260504015641 | 64 | 202 | 0.0 | 2.0 | 0.00 | 0.00 | 0.00 | 57 | 1007.5 |
| 20260504015137 | 64 | 89 | 0.0 | 2.0 | 0.00 | 0.00 | 0.00 | 57 | 1007.5 |
| 20260504014632 | 64 | 212 | 0.0 | 2.0 | 0.00 | 0.00 | 0.00 | 57 | 1007.5 |
| 20260504014130 | 64 | 20 | 0.0 | 1.0 | 0.00 | 0.00 | 0.00 | 57 | 1007.4 |
| 20260504013628 | 64 | 218 | 0.0 | 0.0 | 0.00 | 0.00 | 0.00 | 57 | 1007.2 |
| 20260504013124 | 64 | 172 | 0.0 | 1.0 | 0.00 | 0.00 | 0.00 | 57 | 1007.2 |
| 20260504012621 | 65 | 322 | 0.0 | 0.0 | 0.00 | 0.00 | 0.00 | 56 | 1007.4 |
| 20260504012120 | 65 | 119 | 0.0 | 2.0 | 0.00 | 0.00 | 0.00 | 55 | 1007.5 |
| 20260504011616 | 66 | 240 | 2.0 | 3.0 | 0.00 | 0.00 | 0.00 | 54 | 1007.3 |
| 20260504011112 | 66 | 166 | 1.0 | 2.0 | 0.00 | 0.00 | 0.00 | 52 | 1007.3 |
| 20260504010608 | 66 | 126 | 1.0 | 1.0 | 0.00 | 0.00 | 0.00 | 51 | 1007.3 |
| 20260504010104 | 67 | 352 | 0.0 | 1.0 | 0.00 | 0.00 | 0.00 | 51 | 1007.3 |
| 20260504005601 | 68 | 207 | 1.0 | 2.0 | 0.00 | 0.00 | 0.00 | 50 | 1007.2 |
| 20260504005058 | 68 | 167 | 1.0 | 2.0 | 0.00 | 0.00 | 0.00 | 49 | 1007.3 |
| 20260504004556 | 69 | 179 | 4.0 | 5.0 | 0.00 | 0.00 | 0.00 | 47 | 1007.2 |
| 20260504004053 | 69 | 199 | 3.0 | 6.0 | 0.00 | 0.00 | 0.00 | 47 | 1007.2 |
| 20260504003549 | 69 | 237 | 3.0 | 5.0 | 0.00 | 0.00 | 0.00 | 47 | 1007.2 |
| 20260504003046 | 70 | 211 | 3.0 | 6.0 | 0.00 | 0.00 | 0.00 | 46 | 1007.0 |
| 20260504002543 | 70 | 205 | 4.0 | 6.0 | 0.00 | 0.00 | 0.00 | 45 | 1007.1 |
| 20260504002040 | 71 | 202 | 6.0 | 6.0 | 0.00 | 0.00 | 0.00 | 44 | 1007.0 |
| 20260504001538 | 71 | 231 | 4.0 | 6.0 | 0.00 | 0.00 | 0.00 | 44 | 1007.0 |
| 20260504001034 | 71 | 178 | 4.0 | 4.0 | 0.00 | 0.00 | 0.00 | 44 | 1007.1 |
| 20260504000531 | 71 | 207 | 6.0 | 8.0 | 0.00 | 0.00 | 0.00 | 43 | 1007.2 |
| 20260504000029 | 72 | 185 | 4.0 | 6.0 | 0.00 | 0.00 | 0.00 | 43 | 1007.2 |
| 20260503235527 | 72 | 213 | 4.0 | 6.0 | 0.00 | 0.00 | 0.00 | 43 | 1007.2 |
| 20260503235023 | 72 | 211 | 4.0 | 12.0 | 0.00 | 0.00 | 0.00 | 43 | 1007.2 |
| 20260503234521 | 72 | 223 | 2.0 | 7.0 | 0.00 | 0.00 | 0.00 | 43 | 1007.0 |
| 20260503234019 | 73 | 200 | 4.0 | 9.0 | 0.00 | 0.00 | 0.00 | 41 | 1007.3 |
| 20260503233515 | 73 | 180 | 4.0 | 11.0 | 0.00 | 0.00 | 0.00 | 41 | 1007.3 |
| 20260503233011 | 73 | 162 | 5.0 | 14.0 | 0.00 | 0.00 | 0.00 | 40 | 1007.3 |
| 20260503232508 | 74 | 201 | 5.0 | 6.0 | 0.00 | 0.00 | 0.00 | 40 | 1007.2 |
| 20260503232006 | 75 | 224 | 9.0 | 13.0 | 0.00 | 0.00 | 0.00 | 39 | 1007.4 |
| 20260503231504 | 75 | 195 | 6.0 | 10.0 | 0.00 | 0.00 | 0.00 | 41 | 1007.3 |
| 20260503231000 | 75 | 197 | 6.0 | 8.0 | 0.00 | 0.00 | 0.00 | 39 | 1007.3 |
| 20260503230457 | 75 | 213 | 6.0 | 11.0 | 0.00 | 0.00 | 0.00 | 41 | 1007.4 |
| 20260503225954 | 75 | 181 | 8.0 | 15.0 | 0.00 | 0.00 | 0.00 | 40 | 1007.4 |
| 20260503225451 | 75 | 186 | 6.0 | 9.0 | 0.00 | 0.00 | 0.00 | 38 | 1007.5 |
| 20260503224946 | 75 | 214 | 9.0 | 18.0 | 0.00 | 0.00 | 0.00 | 37 | 1007.6 |
| 20260503224443 | 75 | 195 | 7.0 | 12.0 | 0.00 | 0.00 | 0.00 | 41 | 1007.7 |
| 20260503223941 | 75 | 230 | 8.0 | 13.0 | 0.00 | 0.00 | 0.00 | 38 | 1007.8 |
| 20260503223439 | 75 | 216 | 10.0 | 15.0 | 0.00 | 0.00 | 0.00 | 39 | 1007.7 |
| 20260503222934 | 75 | 210 | 8.0 | 11.0 | 0.00 | 0.00 | 0.00 | 39 | 1007.9 |
| 20260503222433 | 75 | 238 | 5.0 | 12.0 | 0.00 | 0.00 | 0.00 | 38 | 1007.9 |
| 20260503221931 | 75 | 227 | 8.0 | 13.0 | 0.00 | 0.00 | 0.00 | 42 | 1008.0 |
| 20260503221429 | 75 | 181 | 5.0 | 12.0 | 0.00 | 0.00 | 0.00 | 41 | 1007.8 |
| 20260503220925 | 75 | 231 | 9.0 | 14.0 | 0.00 | 0.00 | 0.00 | 37 | 1008.0 |
| 20260503220421 | 75 | 216 | 6.0 | 14.0 | 0.00 | 0.00 | 0.00 | 38 | 1008.1 |
| 20260503215919 | 75 | 203 | 6.0 | 19.0 | 0.00 | 0.00 | 0.00 | 38 | 1008.1 |
| 20260503215416 | 75 | 156 | 4.0 | 11.0 | 0.00 | 0.00 | 0.00 | 39 | 1008.4 |
| 20260503214913 | 74 | 219 | 6.0 | 11.0 | 0.00 | 0.00 | 0.00 | 38 | 1008.6 |
| 20260503214411 | 75 | 187 | 12.0 | 14.0 | 0.00 | 0.00 | 0.00 | 37 | 1008.5 |
| 20260503213908 | 74 | 211 | 8.0 | 13.0 | 0.00 | 0.00 | 0.00 | 41 | 1008.6 |
| 20260503213406 | 74 | 177 | 9.0 | 15.0 | 0.00 | 0.00 | 0.00 | 38 | 1008.7 |
| 20260503212902 | 74 | 191 | 9.0 | 10.0 | 0.00 | 0.00 | 0.00 | 41 | 1008.6 |
| 20260503212400 | 74 | 198 | 7.0 | 14.0 | 0.00 | 0.00 | 0.00 | 39 | 1008.7 |
| 20260503211857 | 74 | 198 | 6.0 | 17.0 | 0.00 | 0.00 | 0.00 | 39 | 1008.9 |
| 20260503211354 | 74 | 203 | 7.0 | 16.0 | 0.00 | 0.00 | 0.00 | 37 | 1008.8 |
| 20260503210848 | 74 | 193 | 4.0 | 11.0 | 0.00 | 0.00 | 0.00 | 40 | 1008.9 |
| 20260503210347 | 73 | 171 | 9.0 | 15.0 | 0.00 | 0.00 | 0.00 | 38 | 1009.2 |
| 20260503205841 | 73 | 205 | 7.0 | 14.0 | 0.00 | 0.00 | 0.00 | 39 | 1009.2 |
| 20260503205338 | 73 | 223 | 15.0 | 17.0 | 0.00 | 0.00 | 0.00 | 38 | 1009.3 |
| 20260503204834 | 73 | 231 | 15.0 | 17.0 | 0.00 | 0.00 | 0.00 | 39 | 1009.4 |
| 20260503204332 | 73 | 236 | 15.0 | 16.0 | 0.00 | 0.00 | 0.00 | 37 | 1009.5 |
| 20260503203829 | 73 | 226 | 12.0 | 15.0 | 0.00 | 0.00 | 0.00 | 42 | 1009.4 |
| 20260503203327 | 73 | 207 | 5.0 | 14.0 | 0.00 | 0.00 | 0.00 | 39 | 1009.7 |
| 20260503202823 | 72 | 169 | 11.0 | 14.0 | 0.00 | 0.00 | 0.00 | 39 | 1009.5 |
| 20260503202321 | 72 | 186 | 7.0 | 12.0 | 0.00 | 0.00 | 0.00 | 42 | 1009.9 |
| 20260503201819 | 72 | 175 | 8.0 | 13.0 | 0.00 | 0.00 | 0.00 | 37 | 1009.7 |
| 20260503201316 | 72 | 179 | 9.0 | 12.0 | 0.00 | 0.00 | 0.00 | 39 | 1010.0 |
| 20260503200813 | 72 | 213 | 8.0 | 16.0 | 0.00 | 0.00 | 0.00 | 40 | 1009.9 |
| 20260503200309 | 72 | 200 | 10.0 | 16.0 | 0.00 | 0.00 | 0.00 | 39 | 1010.0 |
| 20260503195807 | 71 | 241 | 8.0 | 18.0 | 0.00 | 0.00 | 0.00 | 40 | 1010.2 |
| 20260503195304 | 71 | 208 | 13.0 | 14.0 | 0.00 | 0.00 | 0.00 | 39 | 1010.4 |
| 20260503194801 | 71 | 176 | 6.0 | 12.0 | 0.00 | 0.00 | 0.00 | 43 | 1010.5 |
| 20260503194256 | 71 | 206 | 9.0 | 18.0 | 0.00 | 0.00 | 0.00 | 41 | 1010.7 |
| 20260503193753 | 71 | 216 | 8.0 | 14.0 | 0.00 | 0.00 | 0.00 | 39 | 1010.9 |
| 20260503193249 | 71 | 195 | 3.0 | 9.0 | 0.00 | 0.00 | 0.00 | 44 | 1010.8 |
| 20260503192745 | 70 | 223 | 13.0 | 15.0 | 0.00 | 0.00 | 0.00 | 39 | 1010.9 |
| 20260503192240 | 71 | 198 | 14.0 | 16.0 | 0.00 | 0.00 | 0.00 | 38 | 1010.9 |
| 20260503191737 | 71 | 199 | 7.0 | 12.0 | 0.00 | 0.00 | 0.00 | 45 | 1011.4 |
| 20260503191234 | 71 | 163 | 7.0 | 10.0 | 0.00 | 0.00 | 0.00 | 38 | 1011.2 |
| 20260503190731 | 70 | 191 | 8.0 | 14.0 | 0.00 | 0.00 | 0.00 | 38 | 1011.3 |
| 20260503190227 | 70 | 226 | 8.0 | 15.0 | 0.00 | 0.00 | 0.00 | 41 | 1011.5 |
| 20260503185725 | 70 | 198 | 5.0 | 10.0 | 0.00 | 0.00 | 0.00 | 37 | 1011.3 |
| 20260503185220 | 70 | 206 | 4.0 | 11.0 | 0.00 | 0.00 | 0.00 | 39 | 1011.6 |
| 20260503184715 | 69 | 213 | 9.0 | 9.0 | 0.00 | 0.00 | 0.00 | 38 | 1011.5 |
| 20260503184212 | 69 | 208 | 8.0 | 16.0 | 0.00 | 0.00 | 0.00 | 38 | 1011.6 |
| 20260503183708 | 69 | 174 | 3.0 | 13.0 | 0.00 | 0.00 | 0.00 | 38 | 1011.6 |
| 20260503183206 | 69 | 240 | 7.0 | 11.0 | 0.00 | 0.00 | 0.00 | 38 | 1011.6 |
| 20260503182704 | 69 | 175 | 8.0 | 12.0 | 0.00 | 0.00 | 0.00 | 36 | 1011.8 |
| 20260503182202 | 69 | 227 | 9.0 | 13.0 | 0.00 | 0.00 | 0.00 | 35 | 1011.7 |
| 20260503181658 | 68 | 150 | 6.0 | 9.0 | 0.00 | 0.00 | 0.00 | 35 | 1012.0 |
| 20260503181155 | 69 | 195 | 8.0 | 16.0 | 0.00 | 0.00 | 0.00 | 38 | 1012.0 |
| 20260503180652 | 68 | 159 | 7.0 | 12.0 | 0.00 | 0.00 | 0.00 | 35 | 1012.3 |
| 20260503180150 | 68 | 234 | 10.0 | 11.0 | 0.00 | 0.00 | 0.00 | 41 | 1012.3 |
| 20260503175646 | 68 | 186 | 8.0 | 17.0 | 0.00 | 0.00 | 0.00 | 37 | 1012.6 |
| 20260503175143 | 67 | 148 | 3.0 | 12.0 | 0.00 | 0.00 | 0.00 | 36 | 1012.5 |
| 20260503174640 | 67 | 205 | 8.0 | 11.0 | 0.00 | 0.00 | 0.00 | 36 | 1012.7 |
| 20260503174137 | 68 | 156 | 6.0 | 11.0 | 0.00 | 0.00 | 0.00 | 36 | 1012.6 |
| 20260503173632 | 67 | 203 | 6.0 | 12.0 | 0.00 | 0.00 | 0.00 | 36 | 1013.0 |
| 20260503173129 | 67 | 219 | 11.0 | 12.0 | 0.00 | 0.00 | 0.00 | 38 | 1013.0 |
| 20260503172626 | 67 | 176 | 6.0 | 11.0 | 0.00 | 0.00 | 0.00 | 34 | 1013.0 |
| 20260503172123 | 66 | 209 | 10.0 | 12.0 | 0.00 | 0.00 | 0.00 | 36 | 1013.2 |
| 20260503171620 | 66 | 189 | 9.0 | 11.0 | 0.00 | 0.00 | 0.00 | 37 | 1013.0 |
| 20260503171117 | 66 | 224 | 6.0 | 11.0 | 0.00 | 0.00 | 0.00 | 42 | 1013.2 |
| 20260503170614 | 66 | 216 | 8.0 | 10.0 | 0.00 | 0.00 | 0.00 | 41 | 1013.2 |
| 20260503170111 | 67 | 212 | 9.0 | 14.0 | 0.00 | 0.00 | 0.00 | 38 | 1013.1 |
| 20260503151006 | 59 | 185 | 7.0 | 14.0 | 0.00 | 0.00 | 0.00 | 47 | 1014.6 |
| 20260503150503 | 59 | 186 | 5.0 | 10.0 | 0.00 | 0.00 | 0.00 | 53 | 1014.6 |
| 20260503131355 | 52 | 162 | 11.0 | 13.0 | 0.00 | 0.00 | 0.00 | 66 | 1014.9 |
| 20260503130853 | 51 | 215 | 11.0 | 11.0 | 0.00 | 0.00 | 0.00 | 67 | 1014.9 |
| 20260503130350 | 51 | 171 | 7.0 | 9.0 | 0.00 | 0.00 | 0.00 | 67 | 1015.0 |
| 20260503110744 | 42 | 77 | 0.0 | 2.0 | 0.00 | 0.00 | 0.00 | 79 | 1014.1 |
| 20260503110241 | 42 | 158 | 0.0 | 3.0 | 0.00 | 0.00 | 0.00 | 78 | 1014.4 |